Pigeon, MI (48755)

10:41 AM EDT on August 29, 2016 (GMT -0400)
Sand Road | | Change Station

Elev 623 ft 43.91 °N, 83.29 °W | Updated 41 seconds ago

Scattered Clouds
Scattered Clouds
72.5 °F
Feels Like 72.5 °F
N
1.1
Wind Variable Wind from ESE

Today
High -- | Low -- °F
--% Chance of Precip.
Yesterday
High -- | Low -- °F
Precip. -- in
Pressure 30.32 in
Visibility 10.0 miles
Clouds Scattered Clouds 1500 ft
Dew Point 70 °F
Humidity 91%
Rainfall 0.00 in
Snow Depth Not available.
6:53 AM 8:13 PM
Waning Crescent, 8% visible
METAR KBAX 291434Z AUTO 03004KT 10SM SCT015 20/20 A3032 RMK AO2 T02020201
Pressure 30.32 in
Visibility 10.0 miles
Clouds Scattered Clouds 1500 ft
Dew Point 70 °F
Humidity 91%
Rainfall 0.00 in
Snow Depth Not available.
6:53 AM 8:13 PM
Waning Crescent, 8% visible
METAR KBAX 291434Z AUTO 03004KT 10SM SCT015 20/20 A3032 RMK AO2 T02020201

10-Day Weather Forecast

Almanac

Astronomy

Aug. 29, 2016 Rise Set
Actual Time
Civil Twilight
Nautical Twilight
Astronomical Twilight
Moon
Length of Visible Light
Length of Day
Tomorrow will be .
, % of the Moon is Illuminated

Today's Extremes

State Highs State Lows

Community

WunderPhotos

Upload Photos

1,935,840 photos uploaded!

WunderBlog® & News

Nearby

Air Quality

  Air Quality AQ Index Pollutant
Not available.

Snow Depth

Station Depth Elevation

Earthquake Activity

City Distance Mag. Time & Date
Minimum magnitude displayed is 2.5.

Coastal Water Temperatures

Place Temperature

Stations

Nearby Weather Stations

Station Location Temp. Windchill Dew Point Humidity Wind Precip. Elev Updated Type
                   

Watches & Warnings

There are currently no watches in effect.